sensor_id;sensor_type;location;lat;lon;timestamp;temperature;humidity
53520;DHT22;39397;53.204;5.778;2022-11-20T00:01:18;0.90;99.90
53520;DHT22;39397;53.204;5.778;2022-11-20T00:03:44;0.90;99.90
53520;DHT22;39397;53.204;5.778;2022-11-20T00:06:14;0.90;99.90
53520;DHT22;39397;53.204;5.778;2022-11-20T00:08:40;2.90;99.90
53520;DHT22;39397;53.204;5.778;2022-11-20T00:11:15;1.20;99.90
53520;DHT22;39397;53.204;5.778;2022-11-20T00:13:42;0.90;99.90
53520;DHT22;39397;53.204;5.778;2022-11-20T00:16:10;1.00;99.90
53520;DHT22;39397;53.204;5.778;2022-11-20T00:18:36;0.90;99.90
53520;DHT22;39397;53.204;5.778;2022-11-20T00:21:07;0.90;99.90
53520;DHT22;39397;53.204;5.778;2022-11-20T00:23:33;2.10;99.90
53520;DHT22;39397;53.204;5.778;2022-11-20T00:26:07;2.70;99.90
53520;DHT22;39397;53.204;5.778;2022-11-20T00:28:34;1.00;99.90
53520;DHT22;39397;53.204;5.778;2022-11-20T00:31:04;0.90;99.90
53520;DHT22;39397;53.204;5.778;2022-11-20T00:33:30;1.00;99.90
53520;DHT22;39397;53.204;5.778;2022-11-20T00:36:04;2.40;99.90
53520;DHT22;39397;53.204;5.778;2022-11-20T00:38:33;1.00;99.90
53520;DHT22;39397;53.204;5.778;2022-11-20T00:41:01;1.20;99.90
53520;DHT22;39397;53.204;5.778;2022-11-20T00:43:27;1.60;99.90
53520;DHT22;39397;53.204;5.778;2022-11-20T00:46:20;2.40;99.90
53520;DHT22;39397;53.204;5.778;2022-11-20T00:48:46;2.40;99.90
53520;DHT22;39397;53.204;5.778;2022-11-20T00:51:20;2.90;99.90
53520;DHT22;39397;53.204;5.778;2022-11-20T00:53:46;1.10;99.90
53520;DHT22;39397;53.204;5.778;2022-11-20T00:56:14;1.10;99.90
53520;DHT22;39397;53.204;5.778;2022-11-20T00:58:43;2.60;99.90
53520;DHT22;39397;53.204;5.778;2022-11-20T01:01:13;2.00;99.90
53520;DHT22;39397;53.204;5.778;2022-11-20T01:03:41;1.00;99.90
53520;DHT22;39397;53.204;5.778;2022-11-20T01:06:11;2.10;99.90
53520;DHT22;39397;53.204;5.778;2022-11-20T01:08:38;1.90;99.90
53520;DHT22;39397;53.204;5.778;2022-11-20T01:11:09;3.00;99.90
53520;DHT22;39397;53.204;5.778;2022-11-20T01:13:36;1.00;99.90
53520;DHT22;39397;53.204;5.778;2022-11-20T01:18:38;1.00;99.90
53520;DHT22;39397;53.204;5.778;2022-11-20T01:21:13;1.80;99.90
53520;DHT22;39397;53.204;5.778;2022-11-20T01:23:41;1.00;99.90
53520;DHT22;39397;53.204;5.778;2022-11-20T01:26:13;2.70;99.90
53520;DHT22;39397;53.204;5.778;2022-11-20T01:28:40;0.90;99.90
53520;DHT22;39397;53.204;5.778;2022-11-20T01:31:24;2.10;99.90
53520;DHT22;39397;53.204;5.778;2022-11-20T01:33:52;1.00;99.90
53520;DHT22;39397;53.204;5.778;2022-11-20T01:36:20;1.20;99.90
53520;DHT22;39397;53.204;5.778;2022-11-20T01:38:57;0.90;99.90
53520;DHT22;39397;53.204;5.778;2022-11-20T01:41:27;1.00;99.90
53520;DHT22;39397;53.204;5.778;2022-11-20T01:44:14;1.00;99.90
53520;DHT22;39397;53.204;5.778;2022-11-20T01:46:51;0.90;99.90
53520;DHT22;39397;53.204;5.778;2022-11-20T01:49:29;0.90;99.90
53520;DHT22;39397;53.204;5.778;2022-11-20T01:52:04;1.00;99.90
53520;DHT22;39397;53.204;5.778;2022-11-20T01:54:40;1.00;99.90
53520;DHT22;39397;53.204;5.778;2022-11-20T01:57:09;0.80;99.90
53520;DHT22;39397;53.204;5.778;2022-11-20T01:59:42;1.10;99.90
53520;DHT22;39397;53.204;5.778;2022-11-20T02:02:10;1.10;99.90
53520;DHT22;39397;53.204;5.778;2022-11-20T02:04:36;1.80;99.90
53520;DHT22;39397;53.204;5.778;2022-11-20T02:07:04;3.00;99.90
53520;DHT22;39397;53.204;5.778;2022-11-20T02:09:31;2.50;99.90
53520;DHT22;39397;53.204;5.778;2022-11-20T02:11:57;2.60;99.90
53520;DHT22;39397;53.204;5.778;2022-11-20T02:14:24;1.00;99.90
53520;DHT22;39397;53.204;5.778;2022-11-20T02:16:51;1.00;99.90
53520;DHT22;39397;53.204;5.778;2022-11-20T02:19:24;2.40;99.90
53520;DHT22;39397;53.204;5.778;2022-11-20T02:25:06;1.00;99.90
53520;DHT22;39397;53.204;5.778;2022-11-20T02:27:33;3.10;99.90
53520;DHT22;39397;53.204;5.778;2022-11-20T02:30:02;1.20;99.90
53520;DHT22;39397;53.204;5.778;2022-11-20T02:32:31;2.90;99.90
53520;DHT22;39397;53.204;5.778;2022-11-20T02:34:58;3.10;99.90
53520;DHT22;39397;53.204;5.778;2022-11-20T02:37:30;1.80;99.90
53520;DHT22;39397;53.204;5.778;2022-11-20T02:39:58;1.20;99.90
53520;DHT22;39397;53.204;5.778;2022-11-20T02:42:23;2.70;99.90
53520;DHT22;39397;53.204;5.778;2022-11-20T02:44:49;3.10;99.90
53520;DHT22;39397;53.204;5.778;2022-11-20T02:47:15;1.10;99.90
53520;DHT22;39397;53.204;5.778;2022-11-20T02:49:40;1.40;99.90
53520;DHT22;39397;53.204;5.778;2022-11-20T02:52:06;1.10;99.90
53520;DHT22;39397;53.204;5.778;2022-11-20T02:54:32;1.50;99.90
53520;DHT22;39397;53.204;5.778;2022-11-20T02:56:57;1.70;99.90
53520;DHT22;39397;53.204;5.778;2022-11-20T02:59:23;1.10;99.90
53520;DHT22;39397;53.204;5.778;2022-11-20T03:01:49;2.90;99.90
53520;DHT22;39397;53.204;5.778;2022-11-20T03:04:14;3.30;99.90
53520;DHT22;39397;53.204;5.778;2022-11-20T03:06:40;1.20;99.90
53520;DHT22;39397;53.204;5.778;2022-11-20T03:09:06;2.30;99.90
53520;DHT22;39397;53.204;5.778;2022-11-20T03:11:31;1.20;99.90
53520;DHT22;39397;53.204;5.778;2022-11-20T03:13:57;1.70;99.90
53520;DHT22;39397;53.204;5.778;2022-11-20T03:16:23;1.20;99.90
53520;DHT22;39397;53.204;5.778;2022-11-20T03:18:51;0.80;99.90
53520;DHT22;39397;53.204;5.778;2022-11-20T03:21:17;3.10;99.90
53520;DHT22;39397;53.204;5.778;2022-11-20T03:23:43;1.30;99.90
53520;DHT22;39397;53.204;5.778;2022-11-20T03:28:39;1.20;99.90
53520;DHT22;39397;53.204;5.778;2022-11-20T03:31:15;3.10;99.90
53520;DHT22;39397;53.204;5.778;2022-11-20T03:33:42;1.70;99.90
53520;DHT22;39397;53.204;5.778;2022-11-20T03:36:11;1.10;99.90
53520;DHT22;39397;53.204;5.778;2022-11-20T03:38:37;1.10;99.90
53520;DHT22;39397;53.204;5.778;2022-11-20T03:41:05;2.90;99.90
53520;DHT22;39397;53.204;5.778;2022-11-20T03:43:32;2.00;99.90
53520;DHT22;39397;53.204;5.778;2022-11-20T03:45:58;2.60;99.90
53520;DHT22;39397;53.204;5.778;2022-11-20T03:48:24;2.80;99.90
53520;DHT22;39397;53.204;5.778;2022-11-20T03:50:51;0.80;99.90
53520;DHT22;39397;53.204;5.778;2022-11-20T03:53:17;0.80;99.90
53520;DHT22;39397;53.204;5.778;2022-11-20T03:55:43;0.80;99.90
53520;DHT22;39397;53.204;5.778;2022-11-20T03:58:09;2.60;99.90
53520;DHT22;39397;53.204;5.778;2022-11-20T04:00:36;0.80;99.90
53520;DHT22;39397;53.204;5.778;2022-11-20T04:03:02;0.60;99.90
53520;DHT22;39397;53.204;5.778;2022-11-20T04:05:28;0.70;99.90
53520;DHT22;39397;53.204;5.778;2022-11-20T04:07:54;1.90;99.90
53520;DHT22;39397;53.204;5.778;2022-11-20T04:10:19;1.40;99.90
53520;DHT22;39397;53.204;5.778;2022-11-20T04:12:45;2.30;99.90
53520;DHT22;39397;53.204;5.778;2022-11-20T04:15:11;1.60;99.90
53520;DHT22;39397;53.204;5.778;2022-11-20T04:17:37;2.30;99.90
53520;DHT22;39397;53.204;5.778;2022-11-20T04:20:03;0.40;99.90
53520;DHT22;39397;53.204;5.778;2022-11-20T04:22:29;0.40;99.90
53520;DHT22;39397;53.204;5.778;2022-11-20T04:24:55;1.80;99.90
53520;DHT22;39397;53.204;5.778;2022-11-20T04:27:20;0.20;99.90
53520;DHT22;39397;53.204;5.778;2022-11-20T04:29:46;1.70;99.90
53520;DHT22;39397;53.204;5.778;2022-11-20T04:32:12;0.30;99.90
53520;DHT22;39397;53.204;5.778;2022-11-20T04:34:38;0.20;99.90
53520;DHT22;39397;53.204;5.778;2022-11-20T04:37:03;0.20;99.90
53520;DHT22;39397;53.204;5.778;2022-11-20T04:39:29;0.10;99.90
53520;DHT22;39397;53.204;5.778;2022-11-20T04:41:55;1.10;99.90
53520;DHT22;39397;53.204;5.778;2022-11-20T04:44:39;0.00;99.90
53520;DHT22;39397;53.204;5.778;2022-11-20T04:47:04;0.00;99.90
53520;DHT22;39397;53.204;5.778;2022-11-20T04:49:30;-0.10;99.90
53520;DHT22;39397;53.204;5.778;2022-11-20T04:51:57;0.00;99.90
53520;DHT22;39397;53.204;5.778;2022-11-20T04:54:23;1.70;99.90
53520;DHT22;39397;53.204;5.778;2022-11-20T04:56:49;1.90;99.90
53520;DHT22;39397;53.204;5.778;2022-11-20T04:59:15;-0.30;99.90
53520;DHT22;39397;53.204;5.778;2022-11-20T05:01:41;-0.10;99.90
53520;DHT22;39397;53.204;5.778;2022-11-20T05:04:07;-0.30;99.90
53520;DHT22;39397;53.204;5.778;2022-11-20T05:06:32;-0.20;99.90
53520;DHT22;39397;53.204;5.778;2022-11-20T05:08:58;0.90;99.90
53520;DHT22;39397;53.204;5.778;2022-11-20T05:11:24;-0.30;99.90
53520;DHT22;39397;53.204;5.778;2022-11-20T05:13:51;1.60;99.90
53520;DHT22;39397;53.204;5.778;2022-11-20T05:16:24;0.80;99.90
53520;DHT22;39397;53.204;5.778;2022-11-20T05:18:51;-0.30;99.90
53520;DHT22;39397;53.204;5.778;2022-11-20T05:21:17;1.20;99.90
53520;DHT22;39397;53.204;5.778;2022-11-20T05:23:43;-0.40;99.90
53520;DHT22;39397;53.204;5.778;2022-11-20T05:26:17;1.60;99.90
53520;DHT22;39397;53.204;5.778;2022-11-20T05:28:43;-0.40;99.90
53520;DHT22;39397;53.204;5.778;2022-11-20T05:31:20;-0.50;99.90
53520;DHT22;39397;53.204;5.778;2022-11-20T05:33:46;-0.40;99.90
53520;DHT22;39397;53.204;5.778;2022-11-20T05:36:14;-0.40;99.90
53520;DHT22;39397;53.204;5.778;2022-11-20T05:38:40;0.60;99.90
53520;DHT22;39397;53.204;5.778;2022-11-20T05:41:12;0.90;99.90
53520;DHT22;39397;53.204;5.778;2022-11-20T05:43:39;-0.50;99.90
53520;DHT22;39397;53.204;5.778;2022-11-20T05:46:07;1.50;99.90
53520;DHT22;39397;53.204;5.778;2022-11-20T05:48:34;-0.60;99.90
53520;DHT22;39397;53.204;5.778;2022-11-20T05:51:01;1.10;99.90
53520;DHT22;39397;53.204;5.778;2022-11-20T05:53:27;-0.70;99.90
53520;DHT22;39397;53.204;5.778;2022-11-20T05:55:57;-0.60;99.90
53520;DHT22;39397;53.204;5.778;2022-11-20T05:58:23;1.50;99.90
53520;DHT22;39397;53.204;5.778;2022-11-20T06:00:49;1.00;99.90
53520;DHT22;39397;53.204;5.778;2022-11-20T06:03:14;1.20;99.90
53520;DHT22;39397;53.204;5.778;2022-11-20T06:05:40;-0.60;99.90
53520;DHT22;39397;53.204;5.778;2022-11-20T06:08:05;1.00;99.90
53520;DHT22;39397;53.204;5.778;2022-11-20T06:10:31;-0.60;99.90
53520;DHT22;39397;53.204;5.778;2022-11-20T06:12:57;-0.60;99.90
53520;DHT22;39397;53.204;5.778;2022-11-20T06:15:23;-0.50;99.90
53520;DHT22;39397;53.204;5.778;2022-11-20T06:17:55;-0.50;99.90
53520;DHT22;39397;53.204;5.778;2022-11-20T06:20:21;1.40;99.90
53520;DHT22;39397;53.204;5.778;2022-11-20T06:22:47;-0.60;99.90
53520;DHT22;39397;53.204;5.778;2022-11-20T06:25:13;-0.40;99.90
53520;DHT22;39397;53.204;5.778;2022-11-20T06:27:39;-0.50;99.90
53520;DHT22;39397;53.204;5.778;2022-11-20T06:30:05;-0.50;99.90
53520;DHT22;39397;53.204;5.778;2022-11-20T06:32:32;-0.50;99.90
53520;DHT22;39397;53.204;5.778;2022-11-20T06:34:57;0.40;99.90
53520;DHT22;39397;53.204;5.778;2022-11-20T06:37:23;-0.40;99.90
53520;DHT22;39397;53.204;5.778;2022-11-20T06:39:54;0.60;99.90
53520;DHT22;39397;53.204;5.778;2022-11-20T06:42:20;-0.50;99.90
53520;DHT22;39397;53.204;5.778;2022-11-20T06:44:46;-0.40;99.90
53520;DHT22;39397;53.204;5.778;2022-11-20T06:47:11;1.40;99.90
53520;DHT22;39397;53.204;5.778;2022-11-20T06:49:37;0.80;99.90
53520;DHT22;39397;53.204;5.778;2022-11-20T06:52:04;-0.40;99.90
53520;DHT22;39397;53.204;5.778;2022-11-20T06:54:30;-0.40;99.90
53520;DHT22;39397;53.204;5.778;2022-11-20T06:56:57;-0.30;99.90
53520;DHT22;39397;53.204;5.778;2022-11-20T06:59:22;0.50;99.90
53520;DHT22;39397;53.204;5.778;2022-11-20T07:01:48;0.20;99.90
53520;DHT22;39397;53.204;5.778;2022-11-20T07:04:14;0.80;99.90
53520;DHT22;39397;53.204;5.778;2022-11-20T07:06:39;-0.50;99.90
53520;DHT22;39397;53.204;5.778;2022-11-20T07:09:05;-0.20;99.90
53520;DHT22;39397;53.204;5.778;2022-11-20T07:11:31;-0.30;99.90
53520;DHT22;39397;53.204;5.778;2022-11-20T07:13:57;-0.30;99.90
53520;DHT22;39397;53.204;5.778;2022-11-20T07:16:22;-0.20;99.90
53520;DHT22;39397;53.204;5.778;2022-11-20T07:18:48;1.60;99.90
53520;DHT22;39397;53.204;5.778;2022-11-20T07:21:14;-0.20;99.90
53520;DHT22;39397;53.204;5.778;2022-11-20T07:23:39;-0.20;99.90
53520;DHT22;39397;53.204;5.778;2022-11-20T07:26:10;0.70;99.90
53520;DHT22;39397;53.204;5.778;2022-11-20T07:28:36;1.80;99.90
53520;DHT22;39397;53.204;5.778;2022-11-20T07:31:03;0.70;99.90
53520;DHT22;39397;53.204;5.778;2022-11-20T07:33:30;0.00;99.90
53520;DHT22;39397;53.204;5.778;2022-11-20T07:35:58;0.00;99.90
53520;DHT22;39397;53.204;5.778;2022-11-20T07:38:24;1.70;99.90
53520;DHT22;39397;53.204;5.778;2022-11-20T07:40:54;0.10;99.90
53520;DHT22;39397;53.204;5.778;2022-11-20T07:43:20;0.20;99.90
53520;DHT22;39397;53.204;5.778;2022-11-20T07:45:45;1.20;99.90
53520;DHT22;39397;53.204;5.778;2022-11-20T07:48:11;0.10;99.90
53520;DHT22;39397;53.204;5.778;2022-11-20T07:50:37;1.30;99.90
53520;DHT22;39397;53.204;5.778;2022-11-20T07:53:04;1.20;99.90
53520;DHT22;39397;53.204;5.778;2022-11-20T07:55:30;1.30;99.90
53520;DHT22;39397;53.204;5.778;2022-11-20T07:57:57;0.20;99.90
53520;DHT22;39397;53.204;5.778;2022-11-20T08:00:23;1.70;99.90
53520;DHT22;39397;53.204;5.778;2022-11-20T08:02:51;1.30;99.90
53520;DHT22;39397;53.204;5.778;2022-11-20T08:05:20;1.20;99.90
53520;DHT22;39397;53.204;5.778;2022-11-20T08:07:46;1.60;99.90
53520;DHT22;39397;53.204;5.778;2022-11-20T08:10:13;0.00;99.90
53520;DHT22;39397;53.204;5.778;2022-11-20T08:12:50;1.70;99.90
53520;DHT22;39397;53.204;5.778;2022-11-20T08:15:35;0.20;99.90
53520;DHT22;39397;53.204;5.778;2022-11-20T08:18:08;0.20;99.90
53520;DHT22;39397;53.204;5.778;2022-11-20T08:20:35;0.20;99.90
53520;DHT22;39397;53.204;5.778;2022-11-20T08:23:02;0.30;99.90
53520;DHT22;39397;53.204;5.778;2022-11-20T08:25:29;0.50;99.90
53520;DHT22;39397;53.204;5.778;2022-11-20T08:28:00;1.90;99.90
53520;DHT22;39397;53.204;5.778;2022-11-20T08:30:26;0.50;99.90
53520;DHT22;39397;53.204;5.778;2022-11-20T08:32:53;2.00;99.90
53520;DHT22;39397;53.204;5.778;2022-11-20T08:35:19;0.90;99.90
53520;DHT22;39397;53.204;5.778;2022-11-20T08:37:49;2.40;99.90
53520;DHT22;39397;53.204;5.778;2022-11-20T08:40:15;0.70;99.90
53520;DHT22;39397;53.204;5.778;2022-11-20T08:42:48;0.70;99.90
53520;DHT22;39397;53.204;5.778;2022-11-20T08:45:14;1.80;99.90
53520;DHT22;39397;53.204;5.778;2022-11-20T08:47:40;0.80;99.90
53520;DHT22;39397;53.204;5.778;2022-11-20T08:50:08;2.30;99.90
53520;DHT22;39397;53.204;5.778;2022-11-20T08:52:34;0.90;99.90
53520;DHT22;39397;53.204;5.778;2022-11-20T08:54:59;2.30;99.90
53520;DHT22;39397;53.204;5.778;2022-11-20T08:57:25;2.60;99.90
53520;DHT22;39397;53.204;5.778;2022-11-20T08:59:51;1.50;99.90
53520;DHT22;39397;53.204;5.778;2022-11-20T09:02:16;2.00;99.90
53520;DHT22;39397;53.204;5.778;2022-11-20T09:04:42;2.40;99.90
53520;DHT22;39397;53.204;5.778;2022-11-20T09:07:08;1.50;99.90
53520;DHT22;39397;53.204;5.778;2022-11-20T09:09:33;1.40;99.90
53520;DHT22;39397;53.204;5.778;2022-11-20T09:12:01;2.80;99.90
53520;DHT22;39397;53.204;5.778;2022-11-20T09:14:26;1.70;99.90
53520;DHT22;39397;53.204;5.778;2022-11-20T09:16:57;2.80;99.90
53520;DHT22;39397;53.204;5.778;2022-11-20T09:19:24;2.80;99.90
53520;DHT22;39397;53.204;5.778;2022-11-20T09:21:50;2.10;99.90
53520;DHT22;39397;53.204;5.778;2022-11-20T09:24:15;3.20;99.90
53520;DHT22;39397;53.204;5.778;2022-11-20T09:26:41;3.70;99.90
53520;DHT22;39397;53.204;5.778;2022-11-20T09:29:07;3.50;99.90
53520;DHT22;39397;53.204;5.778;2022-11-20T09:31:33;3.70;99.90
53520;DHT22;39397;53.204;5.778;2022-11-20T09:33:58;2.50;99.90
53520;DHT22;39397;53.204;5.778;2022-11-20T09:36:24;2.70;99.90
53520;DHT22;39397;53.204;5.778;2022-11-20T09:38:50;3.70;99.90
53520;DHT22;39397;53.204;5.778;2022-11-20T09:44:32;2.70;99.90
53520;DHT22;39397;53.204;5.778;2022-11-20T09:49:36;4.90;99.90
53520;DHT22;39397;53.204;5.778;2022-11-20T09:54:38;3.00;99.90
53520;DHT22;39397;53.204;5.778;2022-11-20T09:57:33;4.80;99.90
53520;DHT22;39397;53.204;5.778;2022-11-20T10:00:03;3.70;99.90
53520;DHT22;39397;53.204;5.778;2022-11-20T10:08:35;5.20;99.90
53520;DHT22;39397;53.204;5.778;2022-11-20T10:30:44;3.50;99.90
53520;DHT22;39397;53.204;5.778;2022-11-20T10:33:19;5.30;99.90
53520;DHT22;39397;53.204;5.778;2022-11-20T10:36:05;4.60;99.90
53520;DHT22;39397;53.204;5.778;2022-11-20T10:38:38;3.60;99.90
53520;DHT22;39397;53.204;5.778;2022-11-20T10:41:06;4.70;99.90
53520;DHT22;39397;53.204;5.778;2022-11-20T10:44:03;5.00;99.90
53520;DHT22;39397;53.204;5.778;2022-11-20T10:46:44;3.90;99.90
53520;DHT22;39397;53.204;5.778;2022-11-20T10:49:18;5.60;99.90
53520;DHT22;39397;53.204;5.778;2022-11-20T10:57:00;4.10;99.90
53520;DHT22;39397;53.204;5.778;2022-11-20T11:00:10;5.70;99.90
53520;DHT22;39397;53.204;5.778;2022-11-20T11:02:43;4.30;99.90
53520;DHT22;39397;53.204;5.778;2022-11-20T11:07:40;4.10;99.90
53520;DHT22;39397;53.204;5.778;2022-11-20T11:10:18;4.60;99.90
53520;DHT22;39397;53.204;5.778;2022-11-20T11:12:48;5.00;99.90
53520;DHT22;39397;53.204;5.778;2022-11-20T11:15:37;5.30;99.90
53520;DHT22;39397;53.204;5.778;2022-11-20T11:18:03;5.50;99.90
53520;DHT22;39397;53.204;5.778;2022-11-20T11:20:30;4.00;99.90
53520;DHT22;39397;53.204;5.778;2022-11-20T11:22:57;5.00;99.90
53520;DHT22;39397;53.204;5.778;2022-11-20T11:25:29;5.60;99.90
53520;DHT22;39397;53.204;5.778;2022-11-20T11:28:00;4.30;99.90
53520;DHT22;39397;53.204;5.778;2022-11-20T11:30:28;4.90;99.90
53520;DHT22;39397;53.204;5.778;2022-11-20T11:33:11;5.70;99.90
53520;DHT22;39397;53.204;5.778;2022-11-20T11:35:49;4.40;99.90
53520;DHT22;39397;53.204;5.778;2022-11-20T11:40:49;6.50;99.90
53520;DHT22;39397;53.204;5.778;2022-11-20T11:43:35;6.20;99.90
53520;DHT22;39397;53.204;5.778;2022-11-20T11:49:22;4.70;99.90
53520;DHT22;39397;53.204;5.778;2022-11-20T11:54:51;4.80;99.90
53520;DHT22;39397;53.204;5.778;2022-11-20T12:00:13;6.80;99.90
53520;DHT22;39397;53.204;5.778;2022-11-20T12:02:52;4.70;99.90
53520;DHT22;39397;53.204;5.778;2022-11-20T12:05:26;5.80;99.90
53520;DHT22;39397;53.204;5.778;2022-11-20T12:11:06;5.30;99.90
53520;DHT22;39397;53.204;5.778;2022-11-20T12:16:27;4.90;99.90
53520;DHT22;39397;53.204;5.778;2022-11-20T12:18:53;5.50;99.90
53520;DHT22;39397;53.204;5.778;2022-11-20T12:21:49;6.70;99.90
53520;DHT22;39397;53.204;5.778;2022-11-20T12:27:39;4.70;99.90
53520;DHT22;39397;53.204;5.778;2022-11-20T12:30:20;4.70;99.90
53520;DHT22;39397;53.204;5.778;2022-11-20T12:44:35;4.80;99.90
53520;DHT22;39397;53.204;5.778;2022-11-20T12:50:36;2.70;99.90
53520;DHT22;39397;53.204;5.778;2022-11-20T13:07:06;4.50;99.90
53520;DHT22;39397;53.204;5.778;2022-11-20T13:09:36;4.50;99.90
53520;DHT22;39397;53.204;5.778;2022-11-20T13:12:08;6.20;99.90
53520;DHT22;39397;53.204;5.778;2022-11-20T13:14:42;5.60;99.90
53520;DHT22;39397;53.204;5.778;2022-11-20T13:20:17;4.50;99.90
53520;DHT22;39397;53.204;5.778;2022-11-20T13:22:56;4.40;99.90
53520;DHT22;39397;53.204;5.778;2022-11-20T13:25:34;6.10;99.90
53520;DHT22;39397;53.204;5.778;2022-11-20T13:28:46;6.10;99.90
53520;DHT22;39397;53.204;5.778;2022-11-20T13:30:54;5.40;99.90
53520;DHT22;39397;53.204;5.778;2022-11-20T13:33:35;4.30;99.90
53520;DHT22;39397;53.204;5.778;2022-11-20T13:38:43;4.30;99.90
53520;DHT22;39397;53.204;5.778;2022-11-20T13:41:10;4.20;99.90
53520;DHT22;39397;53.204;5.778;2022-11-20T13:46:53;4.30;99.90
53520;DHT22;39397;53.204;5.778;2022-11-20T13:49:39;4.20;99.90
53520;DHT22;39397;53.204;5.778;2022-11-20T13:58:23;4.20;99.90
53520;DHT22;39397;53.204;5.778;2022-11-20T14:01:01;3.90;99.90
53520;DHT22;39397;53.204;5.778;2022-11-20T14:03:34;4.80;99.90
53520;DHT22;39397;53.204;5.778;2022-11-20T14:06:05;5.40;99.90
53520;DHT22;39397;53.204;5.778;2022-11-20T14:08:40;3.90;99.90
53520;DHT22;39397;53.204;5.778;2022-11-20T14:11:18;3.90;99.90
53520;DHT22;39397;53.204;5.778;2022-11-20T14:20:17;3.80;99.90
53520;DHT22;39397;53.204;5.778;2022-11-20T14:22:55;3.80;99.90
53520;DHT22;39397;53.204;5.778;2022-11-20T14:25:23;5.10;99.90
53520;DHT22;39397;53.204;5.778;2022-11-20T14:27:57;3.60;99.90
53520;DHT22;39397;53.204;5.778;2022-11-20T14:30:45;4.00;99.90
53520;DHT22;39397;53.204;5.778;2022-11-20T14:33:13;4.30;99.90
53520;DHT22;39397;53.204;5.778;2022-11-20T14:35:59;4.90;99.90
53520;DHT22;39397;53.204;5.778;2022-11-20T14:38:43;4.90;99.90
53520;DHT22;39397;53.204;5.778;2022-11-20T14:41:31;3.50;99.90
53520;DHT22;39397;53.204;5.778;2022-11-20T14:44:08;5.70;99.90
53520;DHT22;39397;53.204;5.778;2022-11-20T14:46:48;5.60;99.90
53520;DHT22;39397;53.204;5.778;2022-11-20T14:49:15;3.60;99.90
53520;DHT22;39397;53.204;5.778;2022-11-20T14:51:41;3.50;99.90
53520;DHT22;39397;53.204;5.778;2022-11-20T14:54:18;3.70;99.90
53520;DHT22;39397;53.204;5.778;2022-11-20T14:57:03;5.40;99.90
53520;DHT22;39397;53.204;5.778;2022-11-20T14:59:33;5.20;99.90
53520;DHT22;39397;53.204;5.778;2022-11-20T15:02:09;3.30;99.90
53520;DHT22;39397;53.204;5.778;2022-11-20T15:04:48;5.60;99.90
53520;DHT22;39397;53.204;5.778;2022-11-20T15:07:32;3.30;99.90
53520;DHT22;39397;53.204;5.778;2022-11-20T15:10:01;3.30;99.90
53520;DHT22;39397;53.204;5.778;2022-11-20T15:12:28;5.30;99.90
53520;DHT22;39397;53.204;5.778;2022-11-20T15:14:55;3.30;99.90
53520;DHT22;39397;53.204;5.778;2022-11-20T15:17:20;3.60;99.90
53520;DHT22;39397;53.204;5.778;2022-11-20T15:19:53;4.80;99.90
53520;DHT22;39397;53.204;5.778;2022-11-20T15:22:19;3.50;99.90
53520;DHT22;39397;53.204;5.778;2022-11-20T15:24:54;3.30;99.90
53520;DHT22;39397;53.204;5.778;2022-11-20T15:27:23;4.70;99.90
53520;DHT22;39397;53.204;5.778;2022-11-20T15:29:48;5.10;99.90
53520;DHT22;39397;53.204;5.778;2022-11-20T15:32:14;4.30;99.90
53520;DHT22;39397;53.204;5.778;2022-11-20T15:34:40;3.40;99.90
53520;DHT22;39397;53.204;5.778;2022-11-20T15:37:07;3.30;99.90
53520;DHT22;39397;53.204;5.778;2022-11-20T15:39:32;4.30;99.90
53520;DHT22;39397;53.204;5.778;2022-11-20T15:41:58;4.40;99.90
53520;DHT22;39397;53.204;5.778;2022-11-20T15:44:23;5.00;99.90
53520;DHT22;39397;53.204;5.778;2022-11-20T15:46:49;5.30;99.90
53520;DHT22;39397;53.204;5.778;2022-11-20T15:49:16;5.20;99.90
53520;DHT22;39397;53.204;5.778;2022-11-20T15:51:47;4.60;99.90
53520;DHT22;39397;53.204;5.778;2022-11-20T15:54:16;4.40;99.90
53520;DHT22;39397;53.204;5.778;2022-11-20T15:56:43;2.80;99.90
53520;DHT22;39397;53.204;5.778;2022-11-20T15:59:09;4.30;99.90
53520;DHT22;39397;53.204;5.778;2022-11-20T16:01:35;4.90;99.90
53520;DHT22;39397;53.204;5.778;2022-11-20T16:04:19;3.10;99.90
53520;DHT22;39397;53.204;5.778;2022-11-20T16:06:45;5.30;99.90
53520;DHT22;39397;53.204;5.778;2022-11-20T16:09:11;3.40;99.90
53520;DHT22;39397;53.204;5.778;2022-11-20T16:11:36;5.10;99.90
53520;DHT22;39397;53.204;5.778;2022-11-20T16:14:06;5.00;99.90
53520;DHT22;39397;53.204;5.778;2022-11-20T16:16:50;4.50;99.90
53520;DHT22;39397;53.204;5.778;2022-11-20T16:19:16;4.10;99.90
53520;DHT22;39397;53.204;5.778;2022-11-20T16:21:43;3.70;99.90
53520;DHT22;39397;53.204;5.778;2022-11-20T16:24:11;4.50;99.90
53520;DHT22;39397;53.204;5.778;2022-11-20T16:26:38;4.40;99.90
53520;DHT22;39397;53.204;5.778;2022-11-20T16:29:05;3.00;99.90
53520;DHT22;39397;53.204;5.778;2022-11-20T16:31:31;4.40;99.90
53520;DHT22;39397;53.204;5.778;2022-11-20T16:34:04;4.20;99.90
53520;DHT22;39397;53.204;5.778;2022-11-20T16:36:31;1.60;99.90
53520;DHT22;39397;53.204;5.778;2022-11-20T16:39:02;4.60;99.90
53520;DHT22;39397;53.204;5.778;2022-11-20T16:41:30;4.70;99.90
53520;DHT22;39397;53.204;5.778;2022-11-20T16:43:58;4.20;99.90
53520;DHT22;39397;53.204;5.778;2022-11-20T16:46:30;4.70;99.90
53520;DHT22;39397;53.204;5.778;2022-11-20T16:48:57;2.80;99.90
53520;DHT22;39397;53.204;5.778;2022-11-20T16:51:24;4.10;99.90
53520;DHT22;39397;53.204;5.778;2022-11-20T16:53:51;3.90;99.90
53520;DHT22;39397;53.204;5.778;2022-11-20T16:56:19;4.60;99.90
53520;DHT22;39397;53.204;5.778;2022-11-20T16:58:46;2.80;99.90
53520;DHT22;39397;53.204;5.778;2022-11-20T17:01:15;3.20;99.90
53520;DHT22;39397;53.204;5.778;2022-11-20T17:03:43;4.80;99.90
53520;DHT22;39397;53.204;5.778;2022-11-20T17:06:14;4.80;99.90
53520;DHT22;39397;53.204;5.778;2022-11-20T17:08:40;2.80;99.90
53520;DHT22;39397;53.204;5.778;2022-11-20T17:11:07;4.00;99.90
53520;DHT22;39397;53.204;5.778;2022-11-20T17:13:35;3.20;99.90
53520;DHT22;39397;53.204;5.778;2022-11-20T17:16:05;2.80;99.90
53520;DHT22;39397;53.204;5.778;2022-11-20T17:18:31;4.50;99.90
53520;DHT22;39397;53.204;5.778;2022-11-20T17:20:57;3.80;99.90
53520;DHT22;39397;53.204;5.778;2022-11-20T17:23:27;3.70;99.90
53520;DHT22;39397;53.204;5.778;2022-11-20T17:26:03;4.60;99.90
53520;DHT22;39397;53.204;5.778;2022-11-20T17:28:30;3.00;99.90
53520;DHT22;39397;53.204;5.778;2022-11-20T17:31:03;3.10;99.90
53520;DHT22;39397;53.204;5.778;2022-11-20T17:33:29;4.30;99.90
53520;DHT22;39397;53.204;5.778;2022-11-20T17:35:55;2.70;99.90
53520;DHT22;39397;53.204;5.778;2022-11-20T17:38:21;4.90;99.90
53520;DHT22;39397;53.204;5.778;2022-11-20T17:40:47;2.80;99.90
53520;DHT22;39397;53.204;5.778;2022-11-20T17:43:13;4.20;99.90
53520;DHT22;39397;53.204;5.778;2022-11-20T17:45:38;4.10;99.90
53520;DHT22;39397;53.204;5.778;2022-11-20T17:48:24;1.50;99.90
53520;DHT22;39397;53.204;5.778;2022-11-20T17:51:00;4.80;99.90
53520;DHT22;39397;53.204;5.778;2022-11-20T17:53:27;3.50;99.90
53520;DHT22;39397;53.204;5.778;2022-11-20T17:55:55;2.90;99.90
53520;DHT22;39397;53.204;5.778;2022-11-20T17:58:39;4.20;99.90
53520;DHT22;39397;53.204;5.778;2022-11-20T18:01:06;4.90;99.90